Time;durP1;ratioP1;P1;durP2;ratioP2;P2;SDS_P1;SDS_P2;PMS_P1;PMS_P2;Temp;Humidity;BMP_temperature;BMP_pressure;BME280_temperature;BME280_humidity;BME280_pressure;Samples;Min_cycle;Max_cycle;Signal;HPM_P1;HPM_P2
2022/05/25 00:06:59;;;;;;;;;;;19.40;61.10;;;;;;20735011;28;19917;-74
2022/05/25 00:16:59;;;;;;;;;;;19.40;61.00;;;;;;20718362;28;19927;-77
2022/05/25 00:27:00;;;;;;;;;;;19.40;61.00;;;;;;20717241;28;19909;-75
2022/05/25 00:37:00;;;;;;;;;;;19.40;61.00;;;;;;20731241;28;19921;-75
2022/05/25 00:47:01;;;;;;;;;;;19.40;60.90;;;;;;20716176;28;19913;-74
2022/05/25 00:57:05;;;;;;;;;;;19.30;60.80;;;;;;20715368;28;19918;-74
2022/05/25 01:07:06;;;;;;;;;;;19.30;60.80;;;;;;20714282;28;19910;-74
2022/05/25 01:17:10;;;;;;;;;;;19.30;60.80;;;;;;20729820;28;19918;-74
2022/05/25 01:27:17;;;;;;;;;;;19.30;60.80;;;;;;20728798;28;19948;-73
2022/05/25 01:37:25;;;;;;;;;;;19.30;60.80;;;;;;20712100;28;20008;-74
2022/05/25 01:47:26;;;;;;;;;;;19.30;60.80;;;;;;20711181;28;19910;-75
2022/05/25 01:57:27;;;;;;;;;;;19.30;60.80;;;;;;20710982;28;19924;-74
2022/05/25 02:07:35;;;;;;;;;;;19.20;60.80;;;;;;20709714;28;19909;-74
2022/05/25 02:17:53;;;;;;;;;;;19.20;60.80;;;;;;20709767;28;19943;-75
2022/05/25 02:27:56;;;;;;;;;;;19.20;60.80;;;;;;20724384;28;19988;-74
2022/05/25 02:37:57;;;;;;;;;;;19.20;60.80;;;;;;20723975;28;20412;-74
2022/05/25 02:47:58;;;;;;;;;;;19.20;60.80;;;;;;20723613;28;19916;-74
2022/05/25 02:57:59;;;;;;;;;;;19.20;60.80;;;;;;20728337;28;20353;-74
2022/05/25 03:07:59;;;;;;;;;;;19.20;60.80;;;;;;20739959;28;20003;-74
2022/05/25 03:18:00;;;;;;;;;;;19.10;60.80;;;;;;20722519;28;19961;-74
2022/05/25 03:28:02;;;;;;;;;;;19.10;60.80;;;;;;20738955;28;20286;-77
2022/05/25 03:38:04;;;;;;;;;;;19.10;60.80;;;;;;20710320;28;20281;-76
2022/05/25 03:48:07;;;;;;;;;;;19.10;60.80;;;;;;20724467;28;19909;-75
2022/05/25 03:58:07;;;;;;;;;;;19.10;60.70;;;;;;20757263;28;20242;-75
2022/05/25 04:08:08;;;;;;;;;;;19.00;60.60;;;;;;20753401;28;19909;-74
2022/05/25 04:18:09;;;;;;;;;;;19.00;61.30;;;;;;20751824;28;20381;-74
2022/05/25 04:28:09;;;;;;;;;;;19.00;60.60;;;;;;20717495;28;19917;-74
2022/05/25 04:38:14;;;;;;;;;;;19.00;60.60;;;;;;20733591;28;20366;-74
2022/05/25 04:48:15;;;;;;;;;;;19.00;60.60;;;;;;20699895;28;19989;-79
2022/05/25 04:58:18;;;;;;;;;;;19.00;60.60;;;;;;20715515;28;19968;-78
2022/05/25 05:08:19;;;;;;;;;;;19.00;60.60;;;;;;20716820;28;19909;-82
2022/05/25 05:18:20;;;;;;;;;;;19.00;60.60;;;;;;20699284;28;20011;-76
2022/05/25 05:28:53;;;;;;;;;;;19.00;60.60;;;;;;20697344;28;19964;-81
2022/05/25 05:38:54;;;;;;;;;;;19.00;60.70;;;;;;20696735;28;20686;-86
2022/05/25 05:48:55;;;;;;;;;;;19.00;60.60;;;;;;20750031;28;19913;-77
2022/05/25 05:58:55;;;;;;;;;;;19.10;60.60;;;;;;20732308;28;19918;-77
2022/05/25 06:08:56;;;;;;;;;;;19.10;60.60;;;;;;20730889;28;19913;-77
2022/05/25 06:29:17;;;;;;;;;;;19.10;60.60;;;;;;20716967;28;19965;-77
2022/05/25 06:39:18;;;;;;;;;;;19.10;60.60;;;;;;20728883;28;19928;-78
2022/05/25 06:49:18;;;;;;;;;;;19.10;60.70;;;;;;20712431;28;19952;-77
2022/05/25 06:59:19;;;;;;;;;;;19.10;60.60;;;;;;20749329;28;20387;-76
2022/05/25 07:09:19;;;;;;;;;;;19.20;60.60;;;;;;20794075;28;20047;-76
2022/05/25 07:19:20;;;;;;;;;;;19.10;60.50;;;;;;21189776;22;20394;-78
2022/05/25 07:29:21;;;;;;;;;;;19.20;60.50;;;;;;20771523;28;19958;-78
2022/05/25 07:39:21;;;;;;;;;;;19.20;60.40;;;;;;20819219;28;19939;-78
2022/05/25 07:49:23;;;;;;;;;;;19.20;60.40;;;;;;20801023;28;20218;-78
2022/05/25 07:59:24;;;;;;;;;;;19.20;60.30;;;;;;20817949;28;19913;-79
2022/05/25 08:09:24;;;;;;;;;;;19.20;60.30;;;;;;20799267;28;19913;-79
2022/05/25 08:19:25;;;;;;;;;;;19.20;60.30;;;;;;20815117;28;19924;-79
2022/05/25 08:29:25;;;;;;;;;;;19.20;60.20;;;;;;20813289;28;19960;-81
2022/05/25 08:39:26;;;;;;;;;;;19.20;60.20;;;;;;20795164;28;19917;-81
2022/05/25 08:49:28;;;;;;;;;;;19.20;60.10;;;;;;20828400;28;19982;-79
2022/05/25 08:59:37;;;;;;;;;;;19.20;60.00;;;;;;20810283;28;19955;-80
2022/05/25 09:09:39;;;;;;;;;;;19.20;60.10;;;;;;20745886;28;19959;-80
2022/05/25 09:19:41;;;;;;;;;;;19.20;60.00;;;;;;20785107;28;19971;-80
2022/05/25 09:29:42;;;;;;;;;;;19.20;60.00;;;;;;20792876;28;20055;-80
2022/05/25 09:39:43;;;;;;;;;;;19.20;59.90;;;;;;20808575;28;19948;-80
2022/05/25 09:49:45;;;;;;;;;;;19.20;59.90;;;;;;20792779;28;19935;-80
2022/05/25 09:59:50;;;;;;;;;;;19.20;59.90;;;;;;20805589;28;19948;-80
2022/05/25 10:09:51;;;;;;;;;;;19.20;59.80;;;;;;20789264;28;19997;-80
2022/05/25 10:19:52;;;;;;;;;;;19.10;59.80;;;;;;20787523;28;20510;-81
2022/05/25 10:40:12;;;;;;;;;;;19.20;59.70;;;;;;20806745;28;20277;-81
2022/05/25 10:50:30;;;;;;;;;;;19.20;59.70;;;;;;20786692;28;19919;-80
2022/05/25 11:00:34;;;;;;;;;;;19.20;59.50;;;;;;20799278;28;20490;-81
2022/05/25 11:10:43;;;;;;;;;;;19.20;58.90;;;;;;20772737;28;20006;-80
2022/05/25 11:20:57;;;;;;;;;;;19.20;58.40;;;;;;20809723;28;19917;-79
2022/05/25 11:31:04;;;;;;;;;;;19.20;58.10;;;;;;20786754;28;19924;-82
2022/05/25 11:41:08;;;;;;;;;;;19.20;57.70;;;;;;20797133;28;20392;-74
2022/05/25 11:51:08;;;;;;;;;;;19.20;57.50;;;;;;20815453;28;19912;-74
2022/05/25 12:01:17;;;;;;;;;;;19.10;56.90;;;;;;20833260;28;19975;-78
2022/05/25 12:11:36;;;;;;;;;;;19.20;56.60;;;;;;20810154;28;19929;-77
2022/05/25 12:21:41;;;;;;;;;;;19.20;56.60;;;;;;20805550;28;19917;-76
2022/05/25 12:31:42;;;;;;;;;;;19.20;56.40;;;;;;20826995;28;20068;-77
2022/05/25 12:41:43;;;;;;;;;;;19.20;56.50;;;;;;20843844;28;19913;-80
2022/05/25 12:51:43;;;;;;;;;;;19.20;56.50;;;;;;20792736;28;19944;-75
2022/05/25 13:02:04;;;;;;;;;;;19.20;56.50;;;;;;20793425;28;19920;-80
2022/05/25 13:12:23;;;;;;;;;;;19.20;55.80;;;;;;20827352;28;19913;-79
2022/05/25 13:22:25;;;;;;;;;;;19.20;56.70;;;;;;20789569;28;1178699;-79
2022/05/25 13:32:32;;;;;;;;;;;19.30;57.00;;;;;;20797400;28;19913;-79
2022/05/25 13:42:33;;;;;;;;;;;19.30;56.70;;;;;;20813585;28;19931;-82
2022/05/25 13:52:35;;;;;;;;;;;19.40;56.50;;;;;;20795276;28;20361;-80
2022/05/25 14:02:35;;;;;;;;;;;19.50;56.50;;;;;;20778609;28;19924;-84
2022/05/25 14:12:36;;;;;;;;;;;19.50;56.60;;;;;;20787350;28;19917;-82
2022/05/25 14:22:38;;;;;;;;;;;19.60;56.60;;;;;;20777605;28;19951;-80
2022/05/25 14:32:39;;;;;;;;;;;19.70;56.60;;;;;;20790017;28;19916;-79
2022/05/25 14:42:56;;;;;;;;;;;19.70;56.70;;;;;;20790080;28;19967;-78
2022/05/25 14:53:01;;;;;;;;;;;19.70;56.70;;;;;;20787496;28;19919;-72
2022/05/25 15:03:02;;;;;;;;;;;19.80;56.70;;;;;;20787137;28;19913;-77
2022/05/25 15:13:03;;;;;;;;;;;19.80;56.60;;;;;;20784037;28;19920;-79
2022/05/25 15:23:23;;;;;;;;;;;19.90;56.50;;;;;;20772025;28;19917;-81
2022/05/25 15:33:25;;;;;;;;;;;19.90;56.50;;;;;;20807907;28;20360;-80
2022/05/25 15:43:25;;;;;;;;;;;19.90;56.50;;;;;;20803022;28;20008;-75
2022/05/25 15:53:26;;;;;;;;;;;19.90;56.30;;;;;;20784805;28;19955;-71
2022/05/25 16:03:41;;;;;;;;;;;20.00;56.00;;;;;;20822047;28;19913;-72
2022/05/25 16:13:42;;;;;;;;;;;20.00;55.40;;;;;;20798263;28;19924;-74
2022/05/25 16:23:44;;;;;;;;;;;20.10;54.70;;;;;;20772845;28;19917;-76
2022/05/25 16:33:45;;;;;;;;;;;20.00;54.70;;;;;;20812453;28;19912;-84
2022/05/25 16:43:45;;;;;;;;;;;20.00;53.90;;;;;;20797193;28;20284;-76
2022/05/25 16:53:46;;;;;;;;;;;19.90;53.30;;;;;;20832554;28;19917;-78
2022/05/25 17:03:47;;;;;;;;;;;19.90;53.30;;;;;;20797599;28;20300;-79
2022/05/25 17:13:47;;;;;;;;;;;19.90;53.30;;;;;;20787644;28;19952;-79
2022/05/25 17:23:48;;;;;;;;;;;20.00;53.80;;;;;;20794902;28;19917;-79
2022/05/25 17:33:48;;;;;;;;;;;20.00;53.90;;;;;;20793054;28;19917;-77
2022/05/25 17:43:49;;;;;;;;;;;19.90;54.40;;;;;;20791767;28;19923;-78
2022/05/25 17:53:49;;;;;;;;;;;19.90;54.40;;;;;;20792165;28;20281;-80
2022/05/25 18:03:50;;;;;;;;;;;19.90;54.40;;;;;;20790179;28;19913;-77
2022/05/25 18:13:51;;;;;;;;;;;19.90;54.60;;;;;;20799000;28;19919;-79
2022/05/25 18:23:51;;;;;;;;;;;19.80;54.50;;;;;;20805383;28;19966;-81
2022/05/25 18:33:51;;;;;;;;;;;19.80;54.50;;;;;;20772923;28;19913;-83
2022/05/25 18:43:52;;;;;;;;;;;19.70;54.30;;;;;;20796545;28;20376;-79
2022/05/25 18:53:53;;;;;;;;;;;19.70;54.40;;;;;;20777987;28;19913;-80
2022/05/25 19:03:53;;;;;;;;;;;19.70;54.40;;;;;;20799778;28;20176;-79
2022/05/25 19:13:54;;;;;;;;;;;19.70;54.60;;;;;;20815608;28;19960;-81
2022/05/25 19:23:58;;;;;;;;;;;19.70;54.90;;;;;;20778942;28;20361;-81
2022/05/25 19:33:59;;;;;;;;;;;19.70;55.20;;;;;;20770217;28;19917;-81
2022/05/25 19:44:00;;;;;;;;;;;19.60;55.50;;;;;;20829706;28;19975;-81
2022/05/25 19:54:01;;;;;;;;;;;19.60;55.70;;;;;;20783671;28;20000;-81
2022/05/25 20:04:01;;;;;;;;;;;19.60;55.90;;;;;;20808221;28;19995;-82
2022/05/25 20:14:04;;;;;;;;;;;19.60;56.10;;;;;;20781122;28;20003;-82
2022/05/25 20:24:05;;;;;;;;;;;19.60;56.20;;;;;;20827233;28;20303;-82
2022/05/25 20:34:06;;;;;;;;;;;19.50;56.30;;;;;;20830644;28;20003;-82
2022/05/25 20:44:06;;;;;;;;;;;19.60;56.50;;;;;;20812650;28;20441;-83
2022/05/25 20:54:07;;;;;;;;;;;19.50;56.50;;;;;;20812347;28;19913;-83
2022/05/25 21:04:07;;;;;;;;;;;19.50;56.60;;;;;;20828280;28;19912;-82
2022/05/25 21:14:08;;;;;;;;;;;19.50;56.70;;;;;;20811014;28;20011;-82
2022/05/25 21:24:09;;;;;;;;;;;19.50;56.70;;;;;;20809880;28;20455;-83
2022/05/25 21:34:11;;;;;;;;;;;19.50;56.80;;;;;;20824847;28;19912;-83
2022/05/25 21:44:13;;;;;;;;;;;19.40;56.80;;;;;;20808686;28;19913;-82
2022/05/25 21:54:13;;;;;;;;;;;19.50;56.90;;;;;;20807666;28;19972;-82
2022/05/25 22:04:14;;;;;;;;;;;19.40;56.80;;;;;;20806202;28;19913;-82
2022/05/25 22:14:20;;;;;;;;;;;19.40;56.90;;;;;;20806419;28;19916;-82
2022/05/25 22:24:20;;;;;;;;;;;19.50;56.90;;;;;;20796267;28;20006;-83
2022/05/25 22:34:21;;;;;;;;;;;19.30;56.80;;;;;;20838382;28;20336;-83
2022/05/25 22:44:22;;;;;;;;;;;19.30;56.70;;;;;;20804078;28;19920;-83
2022/05/25 22:54:22;;;;;;;;;;;19.40;56.80;;;;;;20821526;28;19919;-82
2022/05/25 23:04:23;;;;;;;;;;;19.50;56.80;;;;;;20820776;28;19917;-83
2022/05/25 23:14:23;;;;;;;;;;;19.40;56.70;;;;;;20790655;28;19978;-83
2022/05/25 23:34:43;;;;;;;;;;;19.40;56.80;;;;;;20818501;28;19917;-81
2022/05/25 23:44:44;;;;;;;;;;;19.40;56.70;;;;;;20818602;28;20403;-83
2022/05/25 23:54:44;;;;;;;;;;;19.30;56.70;;;;;;20833410;28;19917;-83
